createdAt,value
2022-12-15T00:03:46.919Z,16.6
2022-12-15T00:08:46.907Z,16.6
2022-12-15T00:13:46.931Z,16.6
2022-12-15T00:18:47.312Z,16.6
2022-12-15T00:23:47.529Z,16.6
2022-12-15T00:28:47.722Z,16.6
2022-12-15T00:33:47.845Z,16.6
2022-12-15T00:38:48.177Z,16.6
2022-12-15T00:43:48.404Z,16.5
2022-12-15T00:48:49.519Z,16.6
2022-12-15T00:53:49.793Z,16.6
2022-12-15T00:58:49.828Z,16.5
2022-12-15T01:03:50.059Z,16.6
2022-12-15T01:08:50.379Z,16.4
2022-12-15T01:13:53.207Z,16.5
2022-12-15T01:18:52.828Z,16.5
2022-12-15T01:23:53.076Z,16.5
2022-12-15T01:28:53.404Z,16.4
2022-12-15T01:33:53.740Z,16.5
2022-12-15T01:38:54.426Z,16.5
2022-12-15T01:43:53.414Z,16.3
2022-12-15T01:48:53.574Z,16.5
2022-12-15T01:53:53.746Z,16.5
2022-12-15T01:58:54.132Z,16.5
2022-12-15T02:03:54.148Z,16.5
2022-12-15T02:08:54.542Z,16.5
2022-12-15T02:13:54.565Z,16.5
2022-12-15T02:18:54.774Z,16.4
2022-12-15T02:23:55.153Z,16.5
2022-12-15T02:28:55.250Z,16.5
2022-12-15T02:33:55.297Z,16.5
2022-12-15T02:38:56.528Z,16.5
2022-12-15T02:43:56.472Z,16.5
2022-12-15T02:48:56.782Z,16.5
2022-12-15T02:53:56.544Z,16.5
2022-12-15T02:58:56.749Z,16.4
2022-12-15T03:03:59.571Z,16.5
2022-12-15T03:09:01.696Z,16.5
2022-12-15T03:14:01.310Z,16.4
2022-12-15T03:19:04.299Z,16.5
2022-12-15T03:24:03.859Z,16.5
2022-12-15T03:29:03.910Z,16.4
2022-12-15T03:34:04.038Z,16.5
2022-12-15T03:39:04.394Z,16.5
2022-12-15T03:44:04.507Z,16.5
2022-12-15T03:49:04.737Z,16.4
2022-12-15T03:54:04.691Z,16.3
2022-12-15T03:59:04.821Z,16.5
2022-12-15T04:04:05.224Z,16.4
2022-12-15T04:09:05.238Z,16.5
2022-12-15T04:14:05.461Z,16.5
2022-12-15T04:19:05.840Z,16.4
2022-12-15T04:24:05.613Z,16.4
2022-12-15T04:29:05.933Z,16.4
2022-12-15T04:34:06.184Z,16.4
2022-12-15T04:39:06.452Z,16.4
2022-12-15T04:44:06.782Z,16.3
2022-12-15T04:49:07.058Z,16.4
2022-12-15T04:54:07.062Z,16.4
2022-12-15T04:59:07.309Z,16.4
2022-12-15T05:04:07.494Z,16.5
2022-12-15T05:09:07.640Z,16.3
2022-12-15T05:14:07.615Z,16.4
2022-12-15T05:19:08.020Z,16.4
2022-12-15T05:24:11.007Z,16.4
2022-12-15T05:29:13.480Z,16.5
2022-12-15T05:34:15.947Z,16.5
2022-12-15T05:39:15.618Z,16.5
2022-12-15T05:44:15.714Z,16.5
2022-12-15T05:49:15.916Z,16.5
2022-12-15T05:54:18.661Z,16.6
2022-12-15T05:59:19.473Z,16.6
2022-12-15T06:04:19.581Z,16.6
2022-12-15T06:09:19.747Z,16.6
2022-12-15T06:14:20.035Z,16.6
2022-12-15T06:19:20.213Z,16.5
2022-12-15T06:24:20.520Z,16.5
2022-12-15T06:29:20.761Z,16.7
2022-12-15T06:34:20.857Z,16.7
2022-12-15T06:39:21.033Z,16.5
2022-12-15T06:44:21.141Z,16.6
2022-12-15T06:49:21.447Z,16.6
2022-12-15T06:54:21.449Z,16.6
2022-12-15T06:59:21.660Z,16.7
2022-12-15T07:04:21.749Z,16.8
2022-12-15T07:09:22.196Z,16.9
2022-12-15T07:14:26.904Z,16.8
2022-12-15T07:19:25.864Z,16.9
2022-12-15T07:24:25.793Z,17.1
2022-12-15T07:29:26.012Z,17.1
2022-12-15T07:34:26.335Z,17.1
2022-12-15T07:39:26.621Z,17.2
2022-12-15T07:44:26.586Z,17.1
2022-12-15T07:49:26.918Z,17.2
2022-12-15T07:54:27.104Z,17.2
2022-12-15T07:59:27.476Z,17.3
2022-12-15T08:04:27.529Z,17.2
2022-12-15T08:09:27.605Z,17.2
2022-12-15T08:14:27.769Z,17.2
2022-12-15T08:19:27.739Z,17.1
2022-12-15T08:24:27.927Z,17.2
2022-12-15T08:34:28.317Z,17.2
2022-12-15T08:39:28.592Z,17.1
2022-12-15T08:44:28.683Z,17.1
2022-12-15T08:49:28.783Z,17.1
2022-12-15T08:54:28.942Z,17.1
2022-12-15T08:59:29.108Z,17
2022-12-15T09:04:29.132Z,17.1
2022-12-15T09:09:29.378Z,17
2022-12-15T09:14:29.783Z,17.1
2022-12-15T09:19:29.776Z,17
2022-12-15T09:24:34.917Z,17
2022-12-15T09:29:30.268Z,17.1
2022-12-15T09:34:30.621Z,17.2
2022-12-15T09:39:30.871Z,17.3
2022-12-15T09:44:31.287Z,17.3
2022-12-15T09:49:31.558Z,17.3
2022-12-15T09:54:31.798Z,17.4
2022-12-15T09:59:32.046Z,17.4
2022-12-15T10:04:32.236Z,17.4
2022-12-15T10:09:32.452Z,17.5
2022-12-15T10:14:32.741Z,17.5
2022-12-15T10:19:34.910Z,17.5
2022-12-15T10:25:08.367Z,17.6
2022-12-15T10:29:35.146Z,17.6
2022-12-15T10:34:35.468Z,17.6
2022-12-15T10:39:35.494Z,17.6
2022-12-15T10:44:38.314Z,17.6
2022-12-15T10:49:38.009Z,17.5
2022-12-15T10:54:40.842Z,17.6
2022-12-15T10:59:40.861Z,17.6
2022-12-15T11:04:44.700Z,17.8
2022-12-15T11:09:45.067Z,18
2022-12-15T11:14:45.947Z,18.1
2022-12-15T11:19:45.966Z,18.2
2022-12-15T11:24:46.431Z,18.4
2022-12-15T11:29:46.754Z,18.5
2022-12-15T11:34:49.877Z,18.5
2022-12-15T11:39:49.761Z,18.6
2022-12-15T11:44:49.789Z,18.6
2022-12-15T11:49:50.070Z,18.6
2022-12-15T11:54:50.379Z,18.8
2022-12-15T11:59:50.729Z,18.8
2022-12-15T12:04:51.276Z,18.9
2022-12-15T12:09:51.394Z,18.8
2022-12-15T12:14:51.546Z,18.9
2022-12-15T12:19:54.603Z,18.8
2022-12-15T12:24:57.097Z,18.9
2022-12-15T12:29:56.705Z,18.9
2022-12-15T12:35:29.730Z,19
2022-12-15T12:39:56.905Z,19
2022-12-15T12:44:57.046Z,19
2022-12-15T12:49:57.116Z,18.9
2022-12-15T12:54:57.272Z,19
2022-12-15T12:59:57.355Z,18.9
2022-12-15T13:04:57.778Z,19
2022-12-15T13:09:57.891Z,19
2022-12-15T13:14:58.001Z,19
2022-12-15T13:19:58.153Z,19.1
2022-12-15T13:24:58.415Z,18.9
2022-12-15T13:29:58.701Z,19
2022-12-15T13:34:58.887Z,19
2022-12-15T13:39:59.011Z,19
2022-12-15T13:44:59.233Z,19
2022-12-15T13:50:01.933Z,19
2022-12-15T13:54:59.461Z,19
2022-12-15T13:59:59.414Z,19.1
2022-12-15T14:04:59.604Z,19
2022-12-15T14:09:59.915Z,19
2022-12-15T14:15:02.692Z,19.1
2022-12-15T14:20:02.448Z,19
2022-12-15T14:25:05.322Z,18.9
2022-12-15T14:30:07.405Z,19
2022-12-15T14:35:07.168Z,19
2022-12-15T14:40:09.978Z,19
2022-12-15T14:45:09.881Z,19
2022-12-15T14:50:10.084Z,18.8
2022-12-15T14:55:10.193Z,18.9
2022-12-15T15:00:10.442Z,19
2022-12-15T15:05:10.635Z,18.9
2022-12-15T15:10:10.926Z,18.9
2022-12-15T15:15:11.159Z,18.8
2022-12-15T15:20:11.595Z,18.9
2022-12-15T15:25:14.371Z,18.9
2022-12-15T15:30:13.666Z,19
2022-12-15T15:35:13.734Z,19
2022-12-15T15:40:13.718Z,18.9
2022-12-15T15:45:14.102Z,19
2022-12-15T15:50:14.467Z,19
2022-12-15T15:55:14.496Z,19
2022-12-15T16:00:14.622Z,19
2022-12-15T16:05:14.760Z,19
2022-12-15T16:10:14.861Z,19
2022-12-15T16:15:17.791Z,19
2022-12-15T16:20:17.552Z,18.9
2022-12-15T16:25:20.441Z,18.9
2022-12-15T16:30:20.294Z,19
2022-12-15T16:35:22.284Z,18.9
2022-12-15T16:40:21.962Z,19
2022-12-15T16:45:22.273Z,18.8
2022-12-15T16:50:22.561Z,19
2022-12-15T16:55:25.517Z,19
2022-12-15T17:00:25.225Z,19
2022-12-15T17:05:28.004Z,19
2022-12-15T17:10:27.804Z,19.1
2022-12-15T17:15:27.915Z,19.1
2022-12-15T17:20:29.617Z,19
2022-12-15T17:25:53.630Z,19
2022-12-15T17:30:28.674Z,19
2022-12-15T17:35:31.575Z,19
2022-12-15T17:40:31.054Z,19
2022-12-15T17:45:31.058Z,19
2022-12-15T17:50:31.485Z,18.8
2022-12-15T17:55:35.147Z,19
2022-12-15T18:00:31.755Z,18.9
2022-12-15T18:05:31.027Z,18.7
2022-12-15T18:10:30.732Z,18.6
2022-12-15T18:15:30.774Z,18.3
2022-12-15T18:20:30.719Z,18.3
2022-12-15T18:25:32.771Z,18.2
2022-12-15T18:30:32.436Z,18.1
2022-12-15T18:35:35.126Z,18
2022-12-15T18:40:33.912Z,18
2022-12-15T18:45:37.129Z,17.9
2022-12-15T18:50:39.431Z,17.8
2022-12-15T18:55:38.944Z,17.8
2022-12-15T19:00:39.093Z,17.8
2022-12-15T19:05:42.147Z,17.8
2022-12-15T19:10:41.750Z,17.6
2022-12-15T19:15:41.960Z,17.6
2022-12-15T19:20:42.227Z,17.6
2022-12-15T19:25:42.334Z,17.6
2022-12-15T19:30:45.191Z,17.5
2022-12-15T19:35:45.751Z,17.4
2022-12-15T19:40:45.805Z,17.5
2022-12-15T19:45:45.723Z,17.5
2022-12-15T19:50:46.121Z,17.5
2022-12-15T19:55:46.177Z,17.3
2022-12-15T20:00:46.339Z,17.4
2022-12-15T20:05:46.221Z,17.4
2022-12-15T20:10:46.030Z,17.3
2022-12-15T20:15:48.826Z,17.2
2022-12-15T20:20:51.162Z,17.3
2022-12-15T20:25:50.907Z,17.3
2022-12-15T20:30:50.958Z,17.2
2022-12-15T20:35:50.982Z,17.2
2022-12-15T20:40:51.208Z,17.2
2022-12-15T20:45:56.298Z,17
2022-12-15T20:50:51.475Z,17
2022-12-15T20:55:51.372Z,17
2022-12-15T21:00:51.686Z,17.2
2022-12-15T21:05:54.191Z,17.1
2022-12-15T21:10:53.780Z,17
2022-12-15T21:15:54.068Z,17.1
2022-12-15T21:20:54.076Z,17
2022-12-15T21:25:54.087Z,17
2022-12-15T21:30:54.498Z,17.1
2022-12-15T21:35:54.763Z,17
2022-12-15T21:40:59.408Z,17.1
2022-12-15T21:45:57.984Z,17
2022-12-15T21:50:57.587Z,17
2022-12-15T21:55:57.518Z,17
2022-12-15T22:00:57.894Z,17
2022-12-15T22:05:57.967Z,17
2022-12-15T22:10:58.127Z,17
2022-12-15T22:15:58.439Z,17
2022-12-15T22:20:58.533Z,17
2022-12-15T22:25:58.652Z,16.9
2022-12-15T22:30:58.730Z,17
2022-12-15T22:35:58.935Z,17
2022-12-15T22:40:57.941Z,17
2022-12-15T22:45:58.699Z,16.7
2022-12-15T22:50:58.866Z,16.8
2022-12-15T22:55:59.148Z,16.9
2022-12-15T23:00:59.364Z,16.9
2022-12-15T23:05:59.203Z,16.9
2022-12-15T23:10:59.528Z,16.9
2022-12-15T23:15:59.633Z,16.9
2022-12-15T23:21:02.636Z,16.8
2022-12-15T23:26:05.357Z,16.9
2022-12-15T23:31:05.245Z,16.9
2022-12-15T23:36:05.247Z,16.9
2022-12-15T23:41:05.489Z,16.8
2022-12-15T23:46:05.900Z,16.9
2022-12-15T23:51:05.909Z,16.8
2022-12-15T23:56:06.184Z,16.9
